sensor_id;sensor_type;location;lat;lon;timestamp;pressure;altitude;pressure_sealevel;temperature;humidity
51526;BME280;37611;51.794;21.590;2023-07-24T00:02:29;99191.10;;;21.17;64.12
51526;BME280;37611;51.794;21.590;2023-07-24T00:06:31;99196.70;;;21.19;64.02
51526;BME280;37611;51.794;21.590;2023-07-24T00:10:34;99200.04;;;21.20;63.76
51526;BME280;37611;51.794;21.590;2023-07-24T00:14:36;99188.27;;;21.23;63.64
51526;BME280;37611;51.794;21.590;2023-07-24T00:18:38;99186.63;;;21.24;63.61
51526;BME280;37611;51.794;21.590;2023-07-24T00:22:40;99185.91;;;21.23;63.53
51526;BME280;37611;51.794;21.590;2023-07-24T00:26:42;99188.32;;;21.22;63.55
51526;BME280;37611;51.794;21.590;2023-07-24T00:30:44;99193.02;;;21.21;63.66
51526;BME280;37611;51.794;21.590;2023-07-24T00:34:46;99193.42;;;21.17;63.72
51526;BME280;37611;51.794;21.590;2023-07-24T00:38:55;99194.19;;;21.16;63.69
51526;BME280;37611;51.794;21.590;2023-07-24T00:42:59;99187.98;;;21.14;63.68
51526;BME280;37611;51.794;21.590;2023-07-24T00:47:01;99189.66;;;21.14;63.67
51526;BME280;37611;51.794;21.590;2023-07-24T00:51:03;99187.55;;;21.13;63.77
51526;BME280;37611;51.794;21.590;2023-07-24T00:55:06;99193.98;;;21.10;64.03
51526;BME280;37611;51.794;21.590;2023-07-24T00:59:08;99194.67;;;21.07;64.11
51526;BME280;37611;51.794;21.590;2023-07-24T01:03:10;99186.44;;;21.04;64.00
51526;BME280;37611;51.794;21.590;2023-07-24T01:07:14;99191.66;;;21.00;64.13
51526;BME280;37611;51.794;21.590;2023-07-24T01:11:20;99199.84;;;20.94;64.44
51526;BME280;37611;51.794;21.590;2023-07-24T01:15:32;99203.59;;;20.86;65.06
51526;BME280;37611;51.794;21.590;2023-07-24T01:19:37;99206.42;;;20.81;65.22
51526;BME280;37611;51.794;21.590;2023-07-24T01:24:07;99204.50;;;20.72;65.52
51526;BME280;37611;51.794;21.590;2023-07-24T01:28:12;99198.71;;;20.63;65.65
51526;BME280;37611;51.794;21.590;2023-07-24T01:32:14;99199.51;;;20.57;65.92
51526;BME280;37611;51.794;21.590;2023-07-24T01:36:18;99202.32;;;20.51;66.26
51526;BME280;37611;51.794;21.590;2023-07-24T01:40:21;99205.02;;;20.43;66.35
51526;BME280;37611;51.794;21.590;2023-07-24T01:44:26;99204.02;;;20.35;66.63
51526;BME280;37611;51.794;21.590;2023-07-24T01:48:28;99205.39;;;20.28;66.92
51526;BME280;37611;51.794;21.590;2023-07-24T01:52:30;99196.45;;;20.24;67.51
51526;BME280;37611;51.794;21.590;2023-07-24T01:56:36;99203.17;;;20.22;67.49
51526;BME280;37611;51.794;21.590;2023-07-24T02:00:39;99208.48;;;20.17;67.59
51526;BME280;37611;51.794;21.590;2023-07-24T02:04:41;99205.70;;;20.12;68.13
51526;BME280;37611;51.794;21.590;2023-07-24T02:08:43;99206.30;;;20.11;68.71
51526;BME280;37611;51.794;21.590;2023-07-24T02:12:50;99204.48;;;20.08;68.86
51526;BME280;37611;51.794;21.590;2023-07-24T02:17:03;99202.14;;;20.05;68.67
51526;BME280;37611;51.794;21.590;2023-07-24T02:21:05;99202.17;;;20.03;68.99
51526;BME280;37611;51.794;21.590;2023-07-24T02:25:07;99203.66;;;20.02;68.90
51526;BME280;37611;51.794;21.590;2023-07-24T02:29:10;99208.17;;;20.03;68.93
51526;BME280;37611;51.794;21.590;2023-07-24T02:33:14;99213.43;;;20.02;69.12
51526;BME280;37611;51.794;21.590;2023-07-24T02:37:19;99214.50;;;20.02;68.96
51526;BME280;37611;51.794;21.590;2023-07-24T02:41:24;99224.04;;;20.03;69.03
51526;BME280;37611;51.794;21.590;2023-07-24T02:45:29;99212.09;;;20.02;68.81
51526;BME280;37611;51.794;21.590;2023-07-24T02:49:33;99208.23;;;20.01;69.17
51526;BME280;37611;51.794;21.590;2023-07-24T02:53:40;99202.02;;;20.00;68.92
51526;BME280;37611;51.794;21.590;2023-07-24T02:57:42;99197.27;;;19.97;69.00
51526;BME280;37611;51.794;21.590;2023-07-24T03:01:55;99186.29;;;19.95;68.96
51526;BME280;37611;51.794;21.590;2023-07-24T03:05:57;99192.36;;;19.90;69.33
51526;BME280;37611;51.794;21.590;2023-07-24T03:10:03;99192.98;;;19.84;70.00
51526;BME280;37611;51.794;21.590;2023-07-24T03:14:07;99199.51;;;19.76;70.12
51526;BME280;37611;51.794;21.590;2023-07-24T03:18:13;99199.29;;;19.69;70.72
51526;BME280;37611;51.794;21.590;2023-07-24T03:22:17;99201.60;;;19.65;70.82
51526;BME280;37611;51.794;21.590;2023-07-24T03:26:22;99206.08;;;19.65;71.02
51526;BME280;37611;51.794;21.590;2023-07-24T03:30:27;99205.95;;;19.65;71.03
51526;BME280;37611;51.794;21.590;2023-07-24T03:34:34;99204.72;;;19.65;71.31
51526;BME280;37611;51.794;21.590;2023-07-24T03:38:40;99206.21;;;19.67;71.47
51526;BME280;37611;51.794;21.590;2023-07-24T03:42:45;99202.33;;;19.71;71.51
51526;BME280;37611;51.794;21.590;2023-07-24T03:46:47;99202.54;;;19.73;71.72
51526;BME280;37611;51.794;21.590;2023-07-24T03:50:58;99202.90;;;19.73;72.08
51526;BME280;37611;51.794;21.590;2023-07-24T03:55:01;99199.34;;;19.76;72.17
51526;BME280;37611;51.794;21.590;2023-07-24T03:59:03;99197.48;;;19.81;72.28
51526;BME280;37611;51.794;21.590;2023-07-24T04:03:04;99198.52;;;19.86;72.28
51526;BME280;37611;51.794;21.590;2023-07-24T04:07:06;99202.20;;;19.98;72.66
51526;BME280;37611;51.794;21.590;2023-07-24T04:11:08;99205.11;;;20.17;72.48
51526;BME280;37611;51.794;21.590;2023-07-24T04:15:10;99205.19;;;20.39;72.28
51526;BME280;37611;51.794;21.590;2023-07-24T04:19:12;99202.32;;;20.62;71.56
51526;BME280;37611;51.794;21.590;2023-07-24T04:23:15;99204.73;;;20.81;70.91
51526;BME280;37611;51.794;21.590;2023-07-24T04:27:17;99205.24;;;20.89;70.82
51526;BME280;37611;51.794;21.590;2023-07-24T04:31:19;99203.74;;;20.89;70.42
51526;BME280;37611;51.794;21.590;2023-07-24T04:35:20;99202.69;;;20.90;70.34
51526;BME280;37611;51.794;21.590;2023-07-24T04:39:22;99205.83;;;21.00;70.03
51526;BME280;37611;51.794;21.590;2023-07-24T04:43:24;99203.95;;;21.10;70.00
51526;BME280;37611;51.794;21.590;2023-07-24T04:47:26;99202.63;;;21.20;69.77
51526;BME280;37611;51.794;21.590;2023-07-24T04:51:28;99203.45;;;21.42;69.61
51526;BME280;37611;51.794;21.590;2023-07-24T04:55:29;99202.16;;;21.71;69.20
51526;BME280;37611;51.794;21.590;2023-07-24T04:59:31;99208.46;;;22.00;68.92
51526;BME280;37611;51.794;21.590;2023-07-24T05:03:33;99209.73;;;22.27;68.15
51526;BME280;37611;51.794;21.590;2023-07-24T05:07:35;99211.80;;;22.39;66.62
51526;BME280;37611;51.794;21.590;2023-07-24T05:11:37;99212.20;;;22.33;66.36
51526;BME280;37611;51.794;21.590;2023-07-24T05:15:38;99216.91;;;22.30;66.75
51526;BME280;37611;51.794;21.590;2023-07-24T05:19:40;99210.48;;;22.33;66.90
51526;BME280;37611;51.794;21.590;2023-07-24T05:23:42;99209.92;;;22.52;66.63
51526;BME280;37611;51.794;21.590;2023-07-24T05:27:44;99208.98;;;22.63;65.94
51526;BME280;37611;51.794;21.590;2023-07-24T05:31:46;99208.73;;;22.69;64.67
51526;BME280;37611;51.794;21.590;2023-07-24T05:35:51;99209.71;;;22.62;64.56
51526;BME280;37611;51.794;21.590;2023-07-24T05:39:52;99211.15;;;22.52;64.56
51526;BME280;37611;51.794;21.590;2023-07-24T05:43:54;99210.95;;;22.47;64.93
51526;BME280;37611;51.794;21.590;2023-07-24T05:47:57;99206.98;;;22.53;65.46
51526;BME280;37611;51.794;21.590;2023-07-24T05:51:59;99207.56;;;22.61;64.96
51526;BME280;37611;51.794;21.590;2023-07-24T05:56:01;99213.52;;;22.71;65.10
51526;BME280;37611;51.794;21.590;2023-07-24T06:00:04;99209.20;;;22.82;64.87
51526;BME280;37611;51.794;21.590;2023-07-24T06:04:06;99208.92;;;22.98;64.50
51526;BME280;37611;51.794;21.590;2023-07-24T06:08:08;99204.49;;;23.07;64.20
51526;BME280;37611;51.794;21.590;2023-07-24T06:12:12;99203.94;;;23.09;64.08
51526;BME280;37611;51.794;21.590;2023-07-24T06:16:14;99201.59;;;23.12;64.35
51526;BME280;37611;51.794;21.590;2023-07-24T06:20:16;99207.04;;;23.15;63.40
51526;BME280;37611;51.794;21.590;2023-07-24T06:24:18;99217.45;;;23.17;62.85
51526;BME280;37611;51.794;21.590;2023-07-24T06:28:19;99218.88;;;23.20;62.47
51526;BME280;37611;51.794;21.590;2023-07-24T06:32:21;99222.46;;;23.25;61.48
51526;BME280;37611;51.794;21.590;2023-07-24T06:36:23;99224.85;;;23.35;61.37
51526;BME280;37611;51.794;21.590;2023-07-24T06:40:25;99225.62;;;23.44;61.01
51526;BME280;37611;51.794;21.590;2023-07-24T06:44:26;99226.81;;;23.52;61.13
51526;BME280;37611;51.794;21.590;2023-07-24T06:48:28;99229.65;;;23.55;60.81
51526;BME280;37611;51.794;21.590;2023-07-24T06:52:31;99230.86;;;23.60;61.04
51526;BME280;37611;51.794;21.590;2023-07-24T06:56:33;99233.21;;;23.60;60.32
51526;BME280;37611;51.794;21.590;2023-07-24T07:00:35;99235.83;;;23.60;60.15
51526;BME280;37611;51.794;21.590;2023-07-24T07:04:37;99230.24;;;23.58;59.93
51526;BME280;37611;51.794;21.590;2023-07-24T07:08:39;99230.77;;;23.56;60.81
51526;BME280;37611;51.794;21.590;2023-07-24T07:12:40;99232.10;;;23.57;61.69
51526;BME280;37611;51.794;21.590;2023-07-24T07:16:42;99227.59;;;23.66;62.22
51526;BME280;37611;51.794;21.590;2023-07-24T07:20:52;99225.46;;;23.74;61.91
51526;BME280;37611;51.794;21.590;2023-07-24T07:24:54;99218.25;;;23.78;61.56
51526;BME280;37611;51.794;21.590;2023-07-24T07:28:55;99216.73;;;23.91;62.21
51526;BME280;37611;51.794;21.590;2023-07-24T07:32:57;99220.23;;;24.11;62.16
51526;BME280;37611;51.794;21.590;2023-07-24T07:36:59;99220.33;;;24.31;61.02
51526;BME280;37611;51.794;21.590;2023-07-24T07:41:04;99214.92;;;24.38;59.78
51526;BME280;37611;51.794;21.590;2023-07-24T07:45:06;99211.30;;;24.36;59.27
51526;BME280;37611;51.794;21.590;2023-07-24T07:49:08;99214.55;;;24.34;60.44
51526;BME280;37611;51.794;21.590;2023-07-24T07:53:10;99224.38;;;24.33;60.14
51526;BME280;37611;51.794;21.590;2023-07-24T07:57:12;99220.09;;;24.37;59.87
51526;BME280;37611;51.794;21.590;2023-07-24T08:01:13;99219.18;;;24.44;59.63
51526;BME280;37611;51.794;21.590;2023-07-24T08:05:15;99218.31;;;24.54;59.34
51526;BME280;37611;51.794;21.590;2023-07-24T08:09:17;99223.80;;;24.57;58.70
51526;BME280;37611;51.794;21.590;2023-07-24T08:13:19;99224.23;;;24.60;58.30
51526;BME280;37611;51.794;21.590;2023-07-24T08:17:21;99226.02;;;24.61;57.68
51526;BME280;37611;51.794;21.590;2023-07-24T08:21:23;99225.09;;;24.70;58.80
51526;BME280;37611;51.794;21.590;2023-07-24T08:25:25;99224.20;;;24.80;57.91
51526;BME280;37611;51.794;21.590;2023-07-24T08:29:27;99222.80;;;24.77;57.10
51526;BME280;37611;51.794;21.590;2023-07-24T08:33:29;99224.08;;;24.73;57.26
51526;BME280;37611;51.794;21.590;2023-07-24T08:37:32;99222.70;;;24.77;57.28
51526;BME280;37611;51.794;21.590;2023-07-24T08:41:38;99218.98;;;24.75;57.43
51526;BME280;37611;51.794;21.590;2023-07-24T08:45:42;99214.70;;;24.86;57.67
51526;BME280;37611;51.794;21.590;2023-07-24T08:49:44;99213.29;;;25.00;57.77
51526;BME280;37611;51.794;21.590;2023-07-24T08:53:48;99211.40;;;25.16;57.61
51526;BME280;37611;51.794;21.590;2023-07-24T08:57:50;99213.36;;;25.33;56.71
51526;BME280;37611;51.794;21.590;2023-07-24T09:01:52;99214.44;;;25.48;55.95
51526;BME280;37611;51.794;21.590;2023-07-24T09:05:54;99205.28;;;25.62;56.23
51526;BME280;37611;51.794;21.590;2023-07-24T09:09:56;99201.90;;;25.83;54.98
51526;BME280;37611;51.794;21.590;2023-07-24T09:13:58;99199.39;;;26.01;53.71
51526;BME280;37611;51.794;21.590;2023-07-24T09:18:00;99196.98;;;26.14;52.97
51526;BME280;37611;51.794;21.590;2023-07-24T09:22:15;99199.08;;;26.29;52.48
51526;BME280;37611;51.794;21.590;2023-07-24T09:26:17;99196.58;;;26.36;51.94
51526;BME280;37611;51.794;21.590;2023-07-24T09:30:19;99190.23;;;26.56;51.37
51526;BME280;37611;51.794;21.590;2023-07-24T09:34:25;99180.35;;;26.59;50.81
51526;BME280;37611;51.794;21.590;2023-07-24T09:38:29;99174.60;;;26.67;50.99
51526;BME280;37611;51.794;21.590;2023-07-24T09:42:33;99174.29;;;26.75;50.09
51526;BME280;37611;51.794;21.590;2023-07-24T09:46:35;99169.20;;;26.77;49.93
51526;BME280;37611;51.794;21.590;2023-07-24T09:50:38;99157.29;;;26.86;50.10
51526;BME280;37611;51.794;21.590;2023-07-24T09:54:54;99146.30;;;26.99;49.73
51526;BME280;37611;51.794;21.590;2023-07-24T09:58:58;99146.38;;;26.98;48.78
51526;BME280;37611;51.794;21.590;2023-07-24T10:03:02;99137.45;;;26.95;49.61
51526;BME280;37611;51.794;21.590;2023-07-24T10:07:06;99132.52;;;26.97;48.52
51526;BME280;37611;51.794;21.590;2023-07-24T10:11:09;99130.30;;;26.92;48.37
51526;BME280;37611;51.794;21.590;2023-07-24T10:15:13;99122.16;;;27.00;47.74
51526;BME280;37611;51.794;21.590;2023-07-24T10:19:15;99115.70;;;27.22;47.90
51526;BME280;37611;51.794;21.590;2023-07-24T10:23:17;99105.77;;;27.35;47.28
51526;BME280;37611;51.794;21.590;2023-07-24T10:27:23;99099.02;;;27.46;46.32
51526;BME280;37611;51.794;21.590;2023-07-24T10:31:26;99102.31;;;27.50;45.50
51526;BME280;37611;51.794;21.590;2023-07-24T10:35:37;99100.09;;;27.47;45.45
51526;BME280;37611;51.794;21.590;2023-07-24T10:39:40;99098.55;;;27.34;44.99
51526;BME280;37611;51.794;21.590;2023-07-24T10:43:43;99097.50;;;27.19;45.46
51526;BME280;37611;51.794;21.590;2023-07-24T10:47:46;99097.84;;;27.29;45.22
51526;BME280;37611;51.794;21.590;2023-07-24T10:51:58;99093.37;;;27.40;44.68
51526;BME280;37611;51.794;21.590;2023-07-24T10:56:00;99098.59;;;27.46;44.51
51526;BME280;37611;51.794;21.590;2023-07-24T11:00:02;99091.27;;;27.55;44.65
51526;BME280;37611;51.794;21.590;2023-07-24T11:04:04;99079.08;;;27.70;44.71
51526;BME280;37611;51.794;21.590;2023-07-24T11:08:14;99057.85;;;27.83;44.26
51526;BME280;37611;51.794;21.590;2023-07-24T11:12:16;99046.14;;;27.87;44.44
51526;BME280;37611;51.794;21.590;2023-07-24T11:16:18;99053.91;;;27.86;44.29
51526;BME280;37611;51.794;21.590;2023-07-24T11:20:20;99042.59;;;27.95;44.60
51526;BME280;37611;51.794;21.590;2023-07-24T11:24:22;99040.67;;;28.13;44.78
51526;BME280;37611;51.794;21.590;2023-07-24T11:28:23;99037.83;;;28.27;44.71
51526;BME280;37611;51.794;21.590;2023-07-24T11:32:25;99035.48;;;28.37;44.58
51526;BME280;37611;51.794;21.590;2023-07-24T11:36:27;99035.90;;;28.25;43.60
51526;BME280;37611;51.794;21.590;2023-07-24T11:40:37;99032.66;;;28.21;44.09
51526;BME280;37611;51.794;21.590;2023-07-24T11:44:39;99020.68;;;28.32;44.18
51526;BME280;37611;51.794;21.590;2023-07-24T11:48:41;99009.13;;;28.44;43.85
51526;BME280;37611;51.794;21.590;2023-07-24T11:52:43;99010.97;;;28.58;43.37
51526;BME280;37611;51.794;21.590;2023-07-24T11:56:46;99018.02;;;28.72;44.34
51526;BME280;37611;51.794;21.590;2023-07-24T12:00:49;99022.68;;;28.99;44.53
51526;BME280;37611;51.794;21.590;2023-07-24T12:04:55;99025.39;;;29.11;43.04
51526;BME280;37611;51.794;21.590;2023-07-24T12:09:05;99027.73;;;29.13;42.37
51526;BME280;37611;51.794;21.590;2023-07-24T12:13:07;99020.10;;;29.13;41.99
51526;BME280;37611;51.794;21.590;2023-07-24T12:17:09;99013.42;;;29.20;41.92
51526;BME280;37611;51.794;21.590;2023-07-24T12:21:14;99001.85;;;29.26;41.04
51526;BME280;37611;51.794;21.590;2023-07-24T12:25:16;98996.12;;;29.23;41.05
51526;BME280;37611;51.794;21.590;2023-07-24T12:29:18;98997.84;;;29.09;40.77
51526;BME280;37611;51.794;21.590;2023-07-24T12:33:20;98997.14;;;29.06;40.66
51526;BME280;37611;51.794;21.590;2023-07-24T12:37:25;98992.41;;;29.02;40.48
51526;BME280;37611;51.794;21.590;2023-07-24T12:41:26;98988.09;;;29.04;41.14
51526;BME280;37611;51.794;21.590;2023-07-24T12:45:28;98980.83;;;29.08;41.83
51526;BME280;37611;51.794;21.590;2023-07-24T12:49:30;98968.50;;;29.05;42.44
51526;BME280;37611;51.794;21.590;2023-07-24T12:53:33;98953.30;;;29.01;42.04
51526;BME280;37611;51.794;21.590;2023-07-24T12:57:34;98950.58;;;28.97;42.32
51526;BME280;37611;51.794;21.590;2023-07-24T13:01:36;98943.02;;;28.96;42.10
51526;BME280;37611;51.794;21.590;2023-07-24T13:05:38;98936.52;;;28.96;42.23
51526;BME280;37611;51.794;21.590;2023-07-24T13:09:40;98928.77;;;28.94;42.02
51526;BME280;37611;51.794;21.590;2023-07-24T13:13:42;98915.00;;;29.14;42.00
51526;BME280;37611;51.794;21.590;2023-07-24T13:17:43;98906.29;;;29.20;41.39
51526;BME280;37611;51.794;21.590;2023-07-24T13:21:45;98904.03;;;29.11;41.37
51526;BME280;37611;51.794;21.590;2023-07-24T13:25:48;98899.94;;;29.07;40.89
51526;BME280;37611;51.794;21.590;2023-07-24T13:29:52;98897.91;;;29.00;41.33
51526;BME280;37611;51.794;21.590;2023-07-24T13:33:54;98892.58;;;28.99;41.46
51526;BME280;37611;51.794;21.590;2023-07-24T13:37:56;98894.13;;;28.96;41.52
51526;BME280;37611;51.794;21.590;2023-07-24T13:41:58;98892.55;;;28.94;41.83
51526;BME280;37611;51.794;21.590;2023-07-24T13:46:00;98887.40;;;28.89;42.24
51526;BME280;37611;51.794;21.590;2023-07-24T13:50:04;98879.58;;;28.85;42.09
51526;BME280;37611;51.794;21.590;2023-07-24T13:54:08;98869.65;;;28.84;42.99
51526;BME280;37611;51.794;21.590;2023-07-24T13:58:09;98858.87;;;28.97;42.85
51526;BME280;37611;51.794;21.590;2023-07-24T14:02:11;98859.98;;;29.12;42.64
51526;BME280;37611;51.794;21.590;2023-07-24T14:06:14;98852.42;;;29.32;42.83
51526;BME280;37611;51.794;21.590;2023-07-24T14:10:16;98840.57;;;29.49;42.21
51526;BME280;37611;51.794;21.590;2023-07-24T14:14:18;98834.59;;;29.53;42.09
51526;BME280;37611;51.794;21.590;2023-07-24T14:18:20;98826.41;;;29.59;41.55
51526;BME280;37611;51.794;21.590;2023-07-24T14:22:21;98818.48;;;29.55;40.94
51526;BME280;37611;51.794;21.590;2023-07-24T14:26:23;98811.77;;;29.55;40.60
51526;BME280;37611;51.794;21.590;2023-07-24T14:30:25;98813.36;;;29.56;40.20
51526;BME280;37611;51.794;21.590;2023-07-24T14:34:27;98805.95;;;29.54;39.09
51526;BME280;37611;51.794;21.590;2023-07-24T14:38:29;98793.12;;;29.46;38.71
51526;BME280;37611;51.794;21.590;2023-07-24T14:42:30;98793.19;;;29.44;38.90
51526;BME280;37611;51.794;21.590;2023-07-24T14:46:32;98791.33;;;29.42;39.03
51526;BME280;37611;51.794;21.590;2023-07-24T14:50:34;98781.77;;;29.44;38.43
51526;BME280;37611;51.794;21.590;2023-07-24T14:54:36;98773.35;;;29.50;37.80
51526;BME280;37611;51.794;21.590;2023-07-24T14:58:38;98760.52;;;29.54;37.73
51526;BME280;37611;51.794;21.590;2023-07-24T15:02:39;98751.65;;;29.58;37.48
51526;BME280;37611;51.794;21.590;2023-07-24T15:06:42;98748.48;;;29.63;37.34
51526;BME280;37611;51.794;21.590;2023-07-24T15:10:43;98750.27;;;29.70;37.15
51526;BME280;37611;51.794;21.590;2023-07-24T15:14:45;98751.45;;;29.68;37.19
51526;BME280;37611;51.794;21.590;2023-07-24T15:18:47;98745.73;;;29.63;37.44
51526;BME280;37611;51.794;21.590;2023-07-24T15:22:49;98741.77;;;29.52;37.04
51526;BME280;37611;51.794;21.590;2023-07-24T15:26:51;98736.84;;;29.45;37.40
51526;BME280;37611;51.794;21.590;2023-07-24T15:30:53;98731.43;;;29.42;38.04
51526;BME280;37611;51.794;21.590;2023-07-24T15:34:55;98729.33;;;29.39;37.90
51526;BME280;37611;51.794;21.590;2023-07-24T15:38:57;98731.06;;;29.35;38.24
51526;BME280;37611;51.794;21.590;2023-07-24T15:42:59;98733.10;;;29.31;38.40
51526;BME280;37611;51.794;21.590;2023-07-24T15:47:01;98729.75;;;29.34;38.05
51526;BME280;37611;51.794;21.590;2023-07-24T15:51:03;98733.09;;;29.29;37.68
51526;BME280;37611;51.794;21.590;2023-07-24T15:55:08;98730.27;;;29.24;38.24
51526;BME280;37611;51.794;21.590;2023-07-24T15:59:10;98727.50;;;29.27;38.76
51526;BME280;37611;51.794;21.590;2023-07-24T16:03:12;98724.91;;;29.30;38.67
51526;BME280;37611;51.794;21.590;2023-07-24T16:07:14;98723.77;;;29.30;38.63
51526;BME280;37611;51.794;21.590;2023-07-24T16:11:16;98716.83;;;29.23;38.72
51526;BME280;37611;51.794;21.590;2023-07-24T16:15:18;98709.27;;;29.14;38.84
51526;BME280;37611;51.794;21.590;2023-07-24T16:19:21;98703.52;;;29.05;38.79
51526;BME280;37611;51.794;21.590;2023-07-24T16:23:23;98704.96;;;28.93;39.12
51526;BME280;37611;51.794;21.590;2023-07-24T16:27:25;98700.14;;;28.86;39.26
51526;BME280;37611;51.794;21.590;2023-07-24T16:31:28;98698.30;;;28.76;39.22
51526;BME280;37611;51.794;21.590;2023-07-24T16:35:32;98690.73;;;28.66;39.72
51526;BME280;37611;51.794;21.590;2023-07-24T16:39:34;98685.83;;;28.58;40.10
51526;BME280;37611;51.794;21.590;2023-07-24T16:43:36;98678.65;;;28.49;40.55
51526;BME280;37611;51.794;21.590;2023-07-24T16:47:37;98680.80;;;28.40;40.39
51526;BME280;37611;51.794;21.590;2023-07-24T16:51:39;98679.71;;;28.31;40.31
51526;BME280;37611;51.794;21.590;2023-07-24T16:55:41;98683.05;;;28.18;40.50
51526;BME280;37611;51.794;21.590;2023-07-24T16:59:43;98685.00;;;28.03;40.68
51526;BME280;37611;51.794;21.590;2023-07-24T17:03:45;98679.80;;;27.89;40.80
51526;BME280;37611;51.794;21.590;2023-07-24T17:07:46;98678.02;;;27.77;41.02
51526;BME280;37611;51.794;21.590;2023-07-24T17:11:48;98669.95;;;27.62;41.10
51526;BME280;37611;51.794;21.590;2023-07-24T17:15:50;98672.79;;;27.48;41.37
51526;BME280;37611;51.794;21.590;2023-07-24T17:19:52;98675.25;;;27.36;41.66
51526;BME280;37611;51.794;21.590;2023-07-24T17:23:55;98673.84;;;27.23;41.76
51526;BME280;37611;51.794;21.590;2023-07-24T17:27:57;98671.27;;;27.14;41.80
51526;BME280;37611;51.794;21.590;2023-07-24T17:31:58;98667.83;;;27.06;42.00
51526;BME280;37611;51.794;21.590;2023-07-24T17:36:01;98663.48;;;26.96;42.36
51526;BME280;37611;51.794;21.590;2023-07-24T17:40:04;98666.33;;;26.87;42.72
51526;BME280;37611;51.794;21.590;2023-07-24T17:44:06;98659.59;;;26.79;42.91
51526;BME280;37611;51.794;21.590;2023-07-24T17:48:08;98652.66;;;26.70;43.12
51526;BME280;37611;51.794;21.590;2023-07-24T17:52:10;98648.48;;;26.60;43.29
51526;BME280;37611;51.794;21.590;2023-07-24T17:56:12;98650.06;;;26.52;43.58
51526;BME280;37611;51.794;21.590;2023-07-24T18:00:14;98647.42;;;26.42;43.80
51526;BME280;37611;51.794;21.590;2023-07-24T18:04:17;98641.55;;;26.32;44.32
51526;BME280;37611;51.794;21.590;2023-07-24T18:08:19;98643.29;;;26.23;44.92
51526;BME280;37611;51.794;21.590;2023-07-24T18:12:21;98642.05;;;26.13;45.38
51526;BME280;37611;51.794;21.590;2023-07-24T18:16:23;98636.73;;;26.02;45.98
51526;BME280;37611;51.794;21.590;2023-07-24T18:20:25;98641.20;;;25.93;46.76
51526;BME280;37611;51.794;21.590;2023-07-24T18:24:27;98640.37;;;25.85;47.35
51526;BME280;37611;51.794;21.590;2023-07-24T18:28:29;98637.60;;;25.77;48.13
51526;BME280;37611;51.794;21.590;2023-07-24T18:32:31;98641.42;;;25.68;48.66
51526;BME280;37611;51.794;21.590;2023-07-24T18:36:33;98647.05;;;25.55;48.67
51526;BME280;37611;51.794;21.590;2023-07-24T18:40:37;98656.56;;;25.44;48.41
51526;BME280;37611;51.794;21.590;2023-07-24T18:44:38;98695.89;;;25.25;49.91
51526;BME280;37611;51.794;21.590;2023-07-24T18:48:40;98699.94;;;25.03;50.65
51526;BME280;37611;51.794;21.590;2023-07-24T18:52:42;98677.84;;;24.89;51.66
51526;BME280;37611;51.794;21.590;2023-07-24T18:56:44;98672.07;;;24.75;54.01
51526;BME280;37611;51.794;21.590;2023-07-24T19:00:45;98627.70;;;24.56;55.63
51526;BME280;37611;51.794;21.590;2023-07-24T19:04:47;98582.22;;;24.37;57.23
51526;BME280;37611;51.794;21.590;2023-07-24T19:08:49;98578.54;;;24.20;58.41
51526;BME280;37611;51.794;21.590;2023-07-24T19:12:51;98582.70;;;24.01;60.96
51526;BME280;37611;51.794;21.590;2023-07-24T19:16:53;98587.38;;;23.84;61.64
51526;BME280;37611;51.794;21.590;2023-07-24T19:20:55;98561.98;;;23.73;62.93
51526;BME280;37611;51.794;21.590;2023-07-24T19:24:56;98581.89;;;23.55;65.77
51526;BME280;37611;51.794;21.590;2023-07-24T19:28:58;98607.98;;;23.38;67.21
51526;BME280;37611;51.794;21.590;2023-07-24T19:33:00;98618.91;;;23.26;70.64
51526;BME280;37611;51.794;21.590;2023-07-24T19:37:02;98633.59;;;23.09;70.24
51526;BME280;37611;51.794;21.590;2023-07-24T19:41:04;98634.64;;;22.91;71.12
51526;BME280;37611;51.794;21.590;2023-07-24T19:45:06;98637.59;;;22.77;70.77
51526;BME280;37611;51.794;21.590;2023-07-24T19:49:07;98637.25;;;22.64;71.11
51526;BME280;37611;51.794;21.590;2023-07-24T19:53:09;98646.58;;;22.52;71.80
51526;BME280;37611;51.794;21.590;2023-07-24T19:57:11;98636.81;;;22.46;71.81
51526;BME280;37611;51.794;21.590;2023-07-24T20:01:13;98624.27;;;22.39;71.84
51526;BME280;37611;51.794;21.590;2023-07-24T20:05:15;98620.02;;;22.29;73.01
51526;BME280;37611;51.794;21.590;2023-07-24T20:09:16;98618.15;;;22.21;73.93
51526;BME280;37611;51.794;21.590;2023-07-24T20:13:18;98611.30;;;22.16;74.68
51526;BME280;37611;51.794;21.590;2023-07-24T20:17:20;98613.08;;;22.11;75.69
51526;BME280;37611;51.794;21.590;2023-07-24T20:21:22;98610.19;;;22.02;76.94
51526;BME280;37611;51.794;21.590;2023-07-24T20:25:23;98613.50;;;21.90;77.61
51526;BME280;37611;51.794;21.590;2023-07-24T20:29:25;98611.52;;;21.79;78.28
51526;BME280;37611;51.794;21.590;2023-07-24T20:33:27;98618.34;;;21.74;78.66
51526;BME280;37611;51.794;21.590;2023-07-24T20:37:29;98624.33;;;21.66;80.07
51526;BME280;37611;51.794;21.590;2023-07-24T20:41:32;98613.85;;;21.56;80.76
51526;BME280;37611;51.794;21.590;2023-07-24T20:45:34;98600.19;;;21.51;81.05
51526;BME280;37611;51.794;21.590;2023-07-24T20:49:37;98603.01;;;21.48;81.64
51526;BME280;37611;51.794;21.590;2023-07-24T20:53:39;98594.48;;;21.45;82.76
51526;BME280;37611;51.794;21.590;2023-07-24T20:57:41;98593.16;;;21.38;83.34
51526;BME280;37611;51.794;21.590;2023-07-24T21:01:43;98589.98;;;21.35;83.85
51526;BME280;37611;51.794;21.590;2023-07-24T21:05:45;98587.13;;;21.29;83.92
51526;BME280;37611;51.794;21.590;2023-07-24T21:09:50;98589.90;;;21.21;84.63